KDRI

Beauregard Regional Airport

De Ridder, Louisiana, USA
METAR KDRI 171815Z AUTO 03008KT 7SM OVC009 16/16 A3025 RMK AO2 T01640157
Observed Flight Rules
Oct-17 @ 18:15 UTC (10 minutes ago) Instrument Flight Rules
Wind Visibility Clouds
30° at 8 knots 7 miles
  • Overcast at 900' AGL
Temperatures Readings
Current 16°C / 61°F
Dewpoint 16°C / 61°F
Humidity 100%
Altimeter 30.25" Hg
Pressure 1024 hPa
Elevation 63
METAR KDRI 171815Z AUTO 03008KT 7SM OVC009 16/16 A3025 RMK AO2 T01640157
Observed Flight Rules
Oct-17 @ 18:15 UTC
(10 minutes ago)
IFR
Wind Visibility
30° at 8 knots 7 miles
Clouds
  • Overcast at 900' AGL
Temperature Dewpoint
16°C / 61°F 16°C / 61°F
Humidity Altimeter Pressure
100% 30.25" Hg 1024 hPa